sensor_id;sensor_type;location;lat;lon;timestamp;P1;durP1;ratioP1;P2;durP2;ratioP2
5612;SDS011;2828;53.582;9.956;2022-07-05T00:00:18;2.70;;;2.60;;
5612;SDS011;2828;53.582;9.956;2022-07-05T00:02:44;9.20;;;2.77;;
5612;SDS011;2828;53.582;9.956;2022-07-05T00:05:10;3.07;;;2.63;;
5612;SDS011;2828;53.582;9.956;2022-07-05T00:07:36;5.77;;;3.03;;
5612;SDS011;2828;53.582;9.956;2022-07-05T00:10:02;3.37;;;3.07;;
5612;SDS011;2828;53.582;9.956;2022-07-05T00:12:29;3.20;;;2.40;;
5612;SDS011;2828;53.582;9.956;2022-07-05T00:18:00;10.10;;;2.70;;
5612;SDS011;2828;53.582;9.956;2022-07-05T00:20:26;8.27;;;2.87;;
5612;SDS011;2828;53.582;9.956;2022-07-05T00:22:52;3.80;;;3.03;;
5612;SDS011;2828;53.582;9.956;2022-07-05T00:25:18;2.70;;;2.50;;
5612;SDS011;2828;53.582;9.956;2022-07-05T00:27:44;5.73;;;2.50;;
5612;SDS011;2828;53.582;9.956;2022-07-05T00:30:10;5.53;;;3.30;;
5612;SDS011;2828;53.582;9.956;2022-07-05T00:32:37;2.50;;;2.40;;
5612;SDS011;2828;53.582;9.956;2022-07-05T00:35:03;3.80;;;2.90;;
5612;SDS011;2828;53.582;9.956;2022-07-05T00:37:29;5.10;;;3.03;;
5612;SDS011;2828;53.582;9.956;2022-07-05T00:39:55;6.20;;;3.20;;
5612;SDS011;2828;53.582;9.956;2022-07-05T00:42:21;4.60;;;3.37;;
5612;SDS011;2828;53.582;9.956;2022-07-05T00:44:47;5.40;;;3.13;;
5612;SDS011;2828;53.582;9.956;2022-07-05T00:47:13;4.83;;;3.60;;
5612;SDS011;2828;53.582;9.956;2022-07-05T00:49:40;3.63;;;3.33;;
5612;SDS011;2828;53.582;9.956;2022-07-05T00:52:06;3.70;;;3.30;;
5612;SDS011;2828;53.582;9.956;2022-07-05T00:54:33;3.10;;;2.80;;
5612;SDS011;2828;53.582;9.956;2022-07-05T00:56:59;6.43;;;3.20;;
5612;SDS011;2828;53.582;9.956;2022-07-05T00:59:26;3.37;;;3.17;;
5612;SDS011;2828;53.582;9.956;2022-07-05T01:01:52;4.00;;;3.23;;
5612;SDS011;2828;53.582;9.956;2022-07-05T01:04:18;5.23;;;3.50;;
5612;SDS011;2828;53.582;9.956;2022-07-05T01:06:45;3.33;;;3.03;;
5612;SDS011;2828;53.582;9.956;2022-07-05T01:09:12;5.17;;;3.40;;
5612;SDS011;2828;53.582;9.956;2022-07-05T01:11:38;4.57;;;4.17;;
5612;SDS011;2828;53.582;9.956;2022-07-05T01:14:05;3.00;;;2.90;;
5612;SDS011;2828;53.582;9.956;2022-07-05T01:16:36;8.83;;;3.67;;
5612;SDS011;2828;53.582;9.956;2022-07-05T01:19:03;5.83;;;3.50;;
5612;SDS011;2828;53.582;9.956;2022-07-05T01:21:30;3.97;;;3.57;;
5612;SDS011;2828;53.582;9.956;2022-07-05T01:23:57;3.30;;;3.10;;
5612;SDS011;2828;53.582;9.956;2022-07-05T01:26:23;6.60;;;3.37;;
5612;SDS011;2828;53.582;9.956;2022-07-05T01:28:49;12.53;;;3.97;;
5612;SDS011;2828;53.582;9.956;2022-07-05T01:31:15;3.40;;;3.23;;
5612;SDS011;2828;53.582;9.956;2022-07-05T01:33:41;3.50;;;3.30;;
5612;SDS011;2828;53.582;9.956;2022-07-05T01:36:07;12.90;;;3.77;;
5612;SDS011;2828;53.582;9.956;2022-07-05T01:38:33;3.93;;;3.13;;
5612;SDS011;2828;53.582;9.956;2022-07-05T01:40:59;9.20;;;3.93;;
5612;SDS011;2828;53.582;9.956;2022-07-05T01:43:24;3.80;;;3.60;;
5612;SDS011;2828;53.582;9.956;2022-07-05T01:45:50;8.03;;;3.37;;
5612;SDS011;2828;53.582;9.956;2022-07-05T01:48:18;5.63;;;3.53;;
5612;SDS011;2828;53.582;9.956;2022-07-05T01:50:48;4.37;;;3.50;;
5612;SDS011;2828;53.582;9.956;2022-07-05T01:53:17;9.27;;;3.27;;
5612;SDS011;2828;53.582;9.956;2022-07-05T01:55:44;3.93;;;3.50;;
5612;SDS011;2828;53.582;9.956;2022-07-05T01:58:10;6.70;;;3.50;;
5612;SDS011;2828;53.582;9.956;2022-07-05T02:00:48;5.80;;;3.80;;
5612;SDS011;2828;53.582;9.956;2022-07-05T02:03:15;4.10;;;3.80;;
5612;SDS011;2828;53.582;9.956;2022-07-05T02:05:41;10.53;;;3.50;;
5612;SDS011;2828;53.582;9.956;2022-07-05T02:08:08;4.53;;;3.13;;
5612;SDS011;2828;53.582;9.956;2022-07-05T02:10:34;3.53;;;3.10;;
5612;SDS011;2828;53.582;9.956;2022-07-05T02:13:00;3.67;;;3.40;;
5612;SDS011;2828;53.582;9.956;2022-07-05T02:15:26;3.70;;;3.50;;
5612;SDS011;2828;53.582;9.956;2022-07-05T02:17:52;4.80;;;3.90;;
5612;SDS011;2828;53.582;9.956;2022-07-05T02:20:18;5.53;;;3.90;;
5612;SDS011;2828;53.582;9.956;2022-07-05T02:22:44;4.17;;;3.73;;
5612;SDS011;2828;53.582;9.956;2022-07-05T02:25:10;4.10;;;3.70;;
5612;SDS011;2828;53.582;9.956;2022-07-05T02:27:36;4.50;;;4.10;;
5612;SDS011;2828;53.582;9.956;2022-07-05T02:30:03;4.50;;;4.20;;
5612;SDS011;2828;53.582;9.956;2022-07-05T02:32:29;12.33;;;4.20;;
5612;SDS011;2828;53.582;9.956;2022-07-05T02:34:56;4.43;;;4.03;;
5612;SDS011;2828;53.582;9.956;2022-07-05T02:37:22;6.67;;;3.80;;
5612;SDS011;2828;53.582;9.956;2022-07-05T02:39:48;4.20;;;3.93;;
5612;SDS011;2828;53.582;9.956;2022-07-05T02:42:14;4.80;;;4.00;;
5612;SDS011;2828;53.582;9.956;2022-07-05T02:44:40;4.20;;;3.90;;
5612;SDS011;2828;53.582;9.956;2022-07-05T02:47:06;7.80;;;3.87;;
5612;SDS011;2828;53.582;9.956;2022-07-05T02:49:32;5.27;;;4.37;;
5612;SDS011;2828;53.582;9.956;2022-07-05T02:51:58;8.50;;;4.90;;
5612;SDS011;2828;53.582;9.956;2022-07-05T02:54:24;4.43;;;4.03;;
5612;SDS011;2828;53.582;9.956;2022-07-05T02:56:50;7.27;;;4.23;;
5612;SDS011;2828;53.582;9.956;2022-07-05T02:59:16;5.17;;;4.67;;
5612;SDS011;2828;53.582;9.956;2022-07-05T03:01:42;4.20;;;3.90;;
5612;SDS011;2828;53.582;9.956;2022-07-05T03:04:08;5.33;;;3.93;;
5612;SDS011;2828;53.582;9.956;2022-07-05T03:06:35;4.60;;;4.30;;
5612;SDS011;2828;53.582;9.956;2022-07-05T03:09:01;8.13;;;4.27;;
5612;SDS011;2828;53.582;9.956;2022-07-05T03:11:27;4.60;;;4.40;;
5612;SDS011;2828;53.582;9.956;2022-07-05T03:13:53;4.60;;;4.20;;
5612;SDS011;2828;53.582;9.956;2022-07-05T03:16:19;14.33;;;4.40;;
5612;SDS011;2828;53.582;9.956;2022-07-05T03:18:46;4.73;;;4.23;;
5612;SDS011;2828;53.582;9.956;2022-07-05T03:21:12;11.10;;;4.63;;
5612;SDS011;2828;53.582;9.956;2022-07-05T03:23:38;5.70;;;4.40;;
5612;SDS011;2828;53.582;9.956;2022-07-05T03:26:04;5.83;;;4.70;;
5612;SDS011;2828;53.582;9.956;2022-07-05T03:28:30;9.03;;;5.17;;
5612;SDS011;2828;53.582;9.956;2022-07-05T03:30:56;5.57;;;5.07;;
5612;SDS011;2828;53.582;9.956;2022-07-05T03:33:22;5.97;;;4.90;;
5612;SDS011;2828;53.582;9.956;2022-07-05T03:35:48;8.93;;;5.00;;
5612;SDS011;2828;53.582;9.956;2022-07-05T03:38:14;7.43;;;4.30;;
5612;SDS011;2828;53.582;9.956;2022-07-05T03:40:40;5.37;;;4.87;;
5612;SDS011;2828;53.582;9.956;2022-07-05T03:43:06;6.93;;;5.03;;
5612;SDS011;2828;53.582;9.956;2022-07-05T03:45:32;5.63;;;5.10;;
5612;SDS011;2828;53.582;9.956;2022-07-05T03:47:58;4.77;;;4.47;;
5612;SDS011;2828;53.582;9.956;2022-07-05T03:50:24;8.63;;;4.67;;
5612;SDS011;2828;53.582;9.956;2022-07-05T03:52:50;5.70;;;5.10;;
5612;SDS011;2828;53.582;9.956;2022-07-05T03:55:16;11.00;;;5.47;;
5612;SDS011;2828;53.582;9.956;2022-07-05T03:57:42;10.83;;;5.53;;
5612;SDS011;2828;53.582;9.956;2022-07-05T04:00:09;12.03;;;5.57;;
5612;SDS011;2828;53.582;9.956;2022-07-05T04:02:35;5.50;;;5.03;;
5612;SDS011;2828;53.582;9.956;2022-07-05T04:05:01;6.37;;;5.50;;
5612;SDS011;2828;53.582;9.956;2022-07-05T04:07:27;10.33;;;5.40;;
5612;SDS011;2828;53.582;9.956;2022-07-05T04:09:52;6.90;;;5.03;;
5612;SDS011;2828;53.582;9.956;2022-07-05T04:12:18;5.23;;;4.80;;
5612;SDS011;2828;53.582;9.956;2022-07-05T04:14:44;5.80;;;4.77;;
5612;SDS011;2828;53.582;9.956;2022-07-05T04:17:10;12.53;;;5.27;;
5612;SDS011;2828;53.582;9.956;2022-07-05T04:19:36;10.70;;;5.20;;
5612;SDS011;2828;53.582;9.956;2022-07-05T04:22:02;9.90;;;5.43;;
5612;SDS011;2828;53.582;9.956;2022-07-05T04:24:28;5.23;;;4.73;;
5612;SDS011;2828;53.582;9.956;2022-07-05T04:26:54;5.77;;;5.27;;
5612;SDS011;2828;53.582;9.956;2022-07-05T04:29:20;5.60;;;5.10;;
5612;SDS011;2828;53.582;9.956;2022-07-05T04:31:46;5.70;;;5.20;;
5612;SDS011;2828;53.582;9.956;2022-07-05T04:34:12;6.47;;;4.70;;
5612;SDS011;2828;53.582;9.956;2022-07-05T04:36:38;6.70;;;5.50;;
5612;SDS011;2828;53.582;9.956;2022-07-05T04:39:05;6.57;;;5.60;;
5612;SDS011;2828;53.582;9.956;2022-07-05T04:41:31;7.30;;;5.07;;
5612;SDS011;2828;53.582;9.956;2022-07-05T04:43:57;9.43;;;4.70;;
5612;SDS011;2828;53.582;9.956;2022-07-05T04:46:23;13.23;;;5.40;;
5612;SDS011;2828;53.582;9.956;2022-07-05T04:48:49;5.00;;;4.50;;
5612;SDS011;2828;53.582;9.956;2022-07-05T04:51:16;4.97;;;4.53;;
5612;SDS011;2828;53.582;9.956;2022-07-05T04:53:42;5.47;;;4.97;;
5612;SDS011;2828;53.582;9.956;2022-07-05T04:56:08;9.10;;;4.60;;
5612;SDS011;2828;53.582;9.956;2022-07-05T04:58:34;4.73;;;4.40;;
5612;SDS011;2828;53.582;9.956;2022-07-05T05:01:00;4.93;;;4.50;;
5612;SDS011;2828;53.582;9.956;2022-07-05T05:03:26;4.70;;;4.30;;
5612;SDS011;2828;53.582;9.956;2022-07-05T05:05:52;5.70;;;4.07;;
5612;SDS011;2828;53.582;9.956;2022-07-05T05:08:18;6.13;;;3.80;;
5612;SDS011;2828;53.582;9.956;2022-07-05T05:10:44;11.07;;;4.77;;
5612;SDS011;2828;53.582;9.956;2022-07-05T05:13:10;10.60;;;4.10;;
5612;SDS011;2828;53.582;9.956;2022-07-05T05:15:36;4.47;;;4.17;;
5612;SDS011;2828;53.582;9.956;2022-07-05T05:18:03;4.47;;;4.07;;
5612;SDS011;2828;53.582;9.956;2022-07-05T05:20:29;4.80;;;3.87;;
5612;SDS011;2828;53.582;9.956;2022-07-05T05:22:55;7.00;;;4.70;;
5612;SDS011;2828;53.582;9.956;2022-07-05T05:25:21;7.27;;;3.73;;
5612;SDS011;2828;53.582;9.956;2022-07-05T05:27:48;4.83;;;3.70;;
5612;SDS011;2828;53.582;9.956;2022-07-05T05:30:16;3.90;;;3.60;;
5612;SDS011;2828;53.582;9.956;2022-07-05T05:32:42;6.93;;;3.50;;
5612;SDS011;2828;53.582;9.956;2022-07-05T05:35:08;3.97;;;3.57;;
5612;SDS011;2828;53.582;9.956;2022-07-05T05:37:47;4.60;;;3.80;;
5612;SDS011;2828;53.582;9.956;2022-07-05T05:40:17;9.10;;;4.13;;
5612;SDS011;2828;53.582;9.956;2022-07-05T05:42:42;6.73;;;4.07;;
5612;SDS011;2828;53.582;9.956;2022-07-05T05:45:09;4.77;;;3.27;;
5612;SDS011;2828;53.582;9.956;2022-07-05T05:47:51;5.90;;;3.67;;
5612;SDS011;2828;53.582;9.956;2022-07-05T05:50:21;5.07;;;3.90;;
5612;SDS011;2828;53.582;9.956;2022-07-05T05:52:47;3.30;;;3.10;;
5612;SDS011;2828;53.582;9.956;2022-07-05T05:55:13;3.17;;;3.03;;
5612;SDS011;2828;53.582;9.956;2022-07-05T05:57:39;3.83;;;3.40;;
5612;SDS011;2828;53.582;9.956;2022-07-05T06:00:05;2.87;;;2.77;;
5612;SDS011;2828;53.582;9.956;2022-07-05T06:02:32;4.83;;;3.23;;
5612;SDS011;2828;53.582;9.956;2022-07-05T06:04:59;3.63;;;3.33;;
5612;SDS011;2828;53.582;9.956;2022-07-05T06:07:25;14.33;;;3.47;;
5612;SDS011;2828;53.582;9.956;2022-07-05T06:09:51;3.50;;;3.30;;
5612;SDS011;2828;53.582;9.956;2022-07-05T06:12:17;4.70;;;3.40;;
5612;SDS011;2828;53.582;9.956;2022-07-05T06:14:43;3.40;;;3.13;;
5612;SDS011;2828;53.582;9.956;2022-07-05T06:17:09;3.00;;;2.80;;
5612;SDS011;2828;53.582;9.956;2022-07-05T06:19:35;3.20;;;2.90;;
5612;SDS011;2828;53.582;9.956;2022-07-05T06:22:01;9.47;;;3.33;;
5612;SDS011;2828;53.582;9.956;2022-07-05T06:24:27;5.60;;;3.53;;
5612;SDS011;2828;53.582;9.956;2022-07-05T06:26:53;4.87;;;2.80;;
5612;SDS011;2828;53.582;9.956;2022-07-05T06:29:19;3.97;;;2.80;;
5612;SDS011;2828;53.582;9.956;2022-07-05T06:31:44;3.10;;;2.97;;
5612;SDS011;2828;53.582;9.956;2022-07-05T06:34:10;2.73;;;2.57;;
5612;SDS011;2828;53.582;9.956;2022-07-05T06:36:36;2.60;;;2.50;;
5612;SDS011;2828;53.582;9.956;2022-07-05T06:39:02;6.93;;;3.27;;
5612;SDS011;2828;53.582;9.956;2022-07-05T06:41:28;3.30;;;3.00;;
5612;SDS011;2828;53.582;9.956;2022-07-05T06:43:54;4.40;;;2.50;;
5612;SDS011;2828;53.582;9.956;2022-07-05T06:46:20;6.87;;;2.97;;
5612;SDS011;2828;53.582;9.956;2022-07-05T06:48:46;3.20;;;2.40;;
5612;SDS011;2828;53.582;9.956;2022-07-05T06:51:12;4.00;;;2.53;;
5612;SDS011;2828;53.582;9.956;2022-07-05T06:53:38;3.70;;;2.73;;
5612;SDS011;2828;53.582;9.956;2022-07-05T06:56:04;4.47;;;2.10;;
5612;SDS011;2828;53.582;9.956;2022-07-05T06:58:30;6.30;;;2.77;;
5612;SDS011;2828;53.582;9.956;2022-07-05T07:00:56;2.10;;;2.00;;
5612;SDS011;2828;53.582;9.956;2022-07-05T07:03:22;2.50;;;2.37;;
5612;SDS011;2828;53.582;9.956;2022-07-05T07:05:48;2.93;;;1.80;;
5612;SDS011;2828;53.582;9.956;2022-07-05T07:08:15;6.30;;;2.13;;
5612;SDS011;2828;53.582;9.956;2022-07-05T07:11:00;5.33;;;2.20;;
5612;SDS011;2828;53.582;9.956;2022-07-05T07:13:26;2.30;;;2.00;;
5612;SDS011;2828;53.582;9.956;2022-07-05T07:15:52;2.33;;;2.10;;
5612;SDS011;2828;53.582;9.956;2022-07-05T07:18:18;4.37;;;2.70;;
5612;SDS011;2828;53.582;9.956;2022-07-05T07:20:44;4.10;;;2.40;;
5612;SDS011;2828;53.582;9.956;2022-07-05T07:23:10;4.53;;;2.43;;
5612;SDS011;2828;53.582;9.956;2022-07-05T07:25:36;2.70;;;2.37;;
5612;SDS011;2828;53.582;9.956;2022-07-05T07:28:02;3.47;;;2.20;;
5612;SDS011;2828;53.582;9.956;2022-07-05T07:30:29;3.20;;;2.20;;
5612;SDS011;2828;53.582;9.956;2022-07-05T07:32:55;2.03;;;1.93;;
5612;SDS011;2828;53.582;9.956;2022-07-05T07:35:22;3.17;;;2.40;;
5612;SDS011;2828;53.582;9.956;2022-07-05T07:37:48;3.00;;;2.70;;
5612;SDS011;2828;53.582;9.956;2022-07-05T07:40:14;2.73;;;2.00;;
5612;SDS011;2828;53.582;9.956;2022-07-05T07:42:40;2.67;;;2.47;;
5612;SDS011;2828;53.582;9.956;2022-07-05T07:45:06;5.07;;;2.40;;
5612;SDS011;2828;53.582;9.956;2022-07-05T07:47:33;3.40;;;2.30;;
5612;SDS011;2828;53.582;9.956;2022-07-05T07:49:59;10.27;;;2.60;;
5612;SDS011;2828;53.582;9.956;2022-07-05T07:52:25;4.23;;;1.87;;
5612;SDS011;2828;53.582;9.956;2022-07-05T07:54:51;6.00;;;2.10;;
5612;SDS011;2828;53.582;9.956;2022-07-05T07:57:17;2.13;;;1.90;;
5612;SDS011;2828;53.582;9.956;2022-07-05T07:59:43;3.03;;;2.20;;
5612;SDS011;2828;53.582;9.956;2022-07-05T08:02:09;6.10;;;1.73;;
5612;SDS011;2828;53.582;9.956;2022-07-05T08:04:35;2.50;;;1.73;;
5612;SDS011;2828;53.582;9.956;2022-07-05T08:07:01;2.07;;;1.73;;
5612;SDS011;2828;53.582;9.956;2022-07-05T08:09:31;2.93;;;1.50;;
5612;SDS011;2828;53.582;9.956;2022-07-05T08:11:57;7.73;;;1.83;;
5612;SDS011;2828;53.582;9.956;2022-07-05T08:14:23;1.97;;;1.63;;
5612;SDS011;2828;53.582;9.956;2022-07-05T08:16:49;4.47;;;1.57;;
5612;SDS011;2828;53.582;9.956;2022-07-05T08:19:15;2.37;;;1.60;;
5612;SDS011;2828;53.582;9.956;2022-07-05T08:22:00;3.87;;;1.60;;
5612;SDS011;2828;53.582;9.956;2022-07-05T08:24:26;6.93;;;2.10;;
5612;SDS011;2828;53.582;9.956;2022-07-05T08:26:52;1.60;;;1.20;;
5612;SDS011;2828;53.582;9.956;2022-07-05T08:29:18;1.50;;;1.40;;
5612;SDS011;2828;53.582;9.956;2022-07-05T08:31:45;1.20;;;1.10;;
5612;SDS011;2828;53.582;9.956;2022-07-05T08:34:12;1.30;;;1.20;;
5612;SDS011;2828;53.582;9.956;2022-07-05T08:36:38;2.10;;;1.00;;
5612;SDS011;2828;53.582;9.956;2022-07-05T08:39:06;2.13;;;1.60;;
5612;SDS011;2828;53.582;9.956;2022-07-05T08:41:34;1.00;;;1.00;;
5612;SDS011;2828;53.582;9.956;2022-07-05T08:44:01;1.43;;;1.33;;
5612;SDS011;2828;53.582;9.956;2022-07-05T08:46:29;1.20;;;1.10;;
5612;SDS011;2828;53.582;9.956;2022-07-05T08:48:56;1.37;;;1.27;;
5612;SDS011;2828;53.582;9.956;2022-07-05T08:51:24;1.10;;;1.10;;
5612;SDS011;2828;53.582;9.956;2022-07-05T08:53:51;2.73;;;1.10;;
5612;SDS011;2828;53.582;9.956;2022-07-05T08:56:17;2.13;;;1.27;;
5612;SDS011;2828;53.582;9.956;2022-07-05T08:58:44;1.93;;;1.47;;
5612;SDS011;2828;53.582;9.956;2022-07-05T09:01:10;11.50;;;1.60;;
5612;SDS011;2828;53.582;9.956;2022-07-05T09:03:46;3.93;;;1.23;;
5612;SDS011;2828;53.582;9.956;2022-07-05T09:06:13;3.80;;;1.57;;
5612;SDS011;2828;53.582;9.956;2022-07-05T09:08:40;1.63;;;1.40;;
5612;SDS011;2828;53.582;9.956;2022-07-05T09:11:10;2.70;;;1.43;;
5612;SDS011;2828;53.582;9.956;2022-07-05T09:13:38;2.80;;;1.20;;
5612;SDS011;2828;53.582;9.956;2022-07-05T09:16:04;1.27;;;1.23;;
5612;SDS011;2828;53.582;9.956;2022-07-05T09:18:40;2.17;;;1.40;;
5612;SDS011;2828;53.582;9.956;2022-07-05T09:23:39;1.67;;;1.30;;
5612;SDS011;2828;53.582;9.956;2022-07-05T09:26:05;3.47;;;1.10;;
5612;SDS011;2828;53.582;9.956;2022-07-05T09:28:31;1.83;;;1.40;;
5612;SDS011;2828;53.582;9.956;2022-07-05T09:30:57;1.50;;;1.40;;
5612;SDS011;2828;53.582;9.956;2022-07-05T09:33:23;2.20;;;1.40;;
5612;SDS011;2828;53.582;9.956;2022-07-05T09:35:55;1.30;;;1.20;;
5612;SDS011;2828;53.582;9.956;2022-07-05T09:38:26;6.63;;;1.40;;
5612;SDS011;2828;53.582;9.956;2022-07-05T09:40:52;1.57;;;1.47;;
5612;SDS011;2828;53.582;9.956;2022-07-05T09:43:20;1.73;;;1.53;;
5612;SDS011;2828;53.582;9.956;2022-07-05T09:45:50;2.80;;;1.30;;
5612;SDS011;2828;53.582;9.956;2022-07-05T09:48:16;2.83;;;1.10;;
5612;SDS011;2828;53.582;9.956;2022-07-05T09:50:42;1.20;;;1.00;;
5612;SDS011;2828;53.582;9.956;2022-07-05T09:53:08;1.00;;;1.00;;
5612;SDS011;2828;53.582;9.956;2022-07-05T09:55:36;2.60;;;1.50;;
5612;SDS011;2828;53.582;9.956;2022-07-05T09:58:02;1.20;;;1.03;;
5612;SDS011;2828;53.582;9.956;2022-07-05T10:00:28;1.30;;;1.20;;
5612;SDS011;2828;53.582;9.956;2022-07-05T10:02:55;2.50;;;1.27;;
5612;SDS011;2828;53.582;9.956;2022-07-05T10:05:28;4.23;;;1.60;;
5612;SDS011;2828;53.582;9.956;2022-07-05T10:10:24;2.90;;;1.23;;
5612;SDS011;2828;53.582;9.956;2022-07-05T10:12:50;5.93;;;1.53;;
5612;SDS011;2828;53.582;9.956;2022-07-05T10:15:17;2.87;;;0.93;;
5612;SDS011;2828;53.582;9.956;2022-07-05T10:17:45;0.90;;;0.90;;
5612;SDS011;2828;53.582;9.956;2022-07-05T10:20:25;3.13;;;1.30;;
5612;SDS011;2828;53.582;9.956;2022-07-05T10:22:52;2.30;;;1.13;;
5612;SDS011;2828;53.582;9.956;2022-07-05T10:25:19;1.37;;;0.90;;
5612;SDS011;2828;53.582;9.956;2022-07-05T10:27:46;3.03;;;1.13;;
5612;SDS011;2828;53.582;9.956;2022-07-05T10:30:13;13.60;;;1.37;;
5612;SDS011;2828;53.582;9.956;2022-07-05T10:32:40;2.30;;;0.70;;
5612;SDS011;2828;53.582;9.956;2022-07-05T10:35:08;1.70;;;0.93;;
5612;SDS011;2828;53.582;9.956;2022-07-05T10:37:34;0.70;;;0.70;;
5612;SDS011;2828;53.582;9.956;2022-07-05T10:40:01;1.47;;;0.90;;
5612;SDS011;2828;53.582;9.956;2022-07-05T10:42:32;1.30;;;1.20;;
5612;SDS011;2828;53.582;9.956;2022-07-05T10:44:58;1.00;;;1.00;;
5612;SDS011;2828;53.582;9.956;2022-07-05T10:47:24;2.70;;;0.90;;
5612;SDS011;2828;53.582;9.956;2022-07-05T10:50:03;0.93;;;0.87;;
5612;SDS011;2828;53.582;9.956;2022-07-05T10:52:29;7.80;;;1.30;;
5612;SDS011;2828;53.582;9.956;2022-07-05T10:57:40;1.67;;;0.70;;
5612;SDS011;2828;53.582;9.956;2022-07-05T11:00:07;1.53;;;1.37;;
5612;SDS011;2828;53.582;9.956;2022-07-05T11:02:33;0.90;;;0.80;;
5612;SDS011;2828;53.582;9.956;2022-07-05T11:04:59;8.67;;;1.20;;
5612;SDS011;2828;53.582;9.956;2022-07-05T11:07:56;2.30;;;0.97;;
5612;SDS011;2828;53.582;9.956;2022-07-05T11:10:15;1.90;;;0.90;;
5612;SDS011;2828;53.582;9.956;2022-07-05T11:12:41;1.67;;;1.00;;
5612;SDS011;2828;53.582;9.956;2022-07-05T11:15:07;2.00;;;0.90;;
5612;SDS011;2828;53.582;9.956;2022-07-05T11:17:35;3.17;;;0.90;;
5612;SDS011;2828;53.582;9.956;2022-07-05T11:20:09;1.00;;;0.90;;
5612;SDS011;2828;53.582;9.956;2022-07-05T11:22:36;1.23;;;0.90;;
5612;SDS011;2828;53.582;9.956;2022-07-05T11:25:03;1.40;;;0.90;;
5612;SDS011;2828;53.582;9.956;2022-07-05T11:27:29;1.20;;;1.00;;
5612;SDS011;2828;53.582;9.956;2022-07-05T11:29:57;2.87;;;0.80;;
5612;SDS011;2828;53.582;9.956;2022-07-05T11:37:56;1.50;;;0.87;;
5612;SDS011;2828;53.582;9.956;2022-07-05T11:42:49;4.43;;;0.97;;
5612;SDS011;2828;53.582;9.956;2022-07-05T11:45:16;1.13;;;0.83;;
5612;SDS011;2828;53.582;9.956;2022-07-05T11:47:42;6.80;;;1.43;;
5612;SDS011;2828;53.582;9.956;2022-07-05T11:50:09;6.70;;;1.00;;
5612;SDS011;2828;53.582;9.956;2022-07-05T11:52:35;0.90;;;0.77;;
5612;SDS011;2828;53.582;9.956;2022-07-05T11:55:10;1.50;;;0.93;;
5612;SDS011;2828;53.582;9.956;2022-07-05T11:57:37;1.30;;;0.87;;
5612;SDS011;2828;53.582;9.956;2022-07-05T12:00:13;2.50;;;1.13;;
5612;SDS011;2828;53.582;9.956;2022-07-05T12:02:50;2.50;;;1.00;;
5612;SDS011;2828;53.582;9.956;2022-07-05T12:05:16;1.03;;;0.80;;
5612;SDS011;2828;53.582;9.956;2022-07-05T12:07:47;4.27;;;1.00;;
5612;SDS011;2828;53.582;9.956;2022-07-05T12:10:13;2.60;;;1.07;;
5612;SDS011;2828;53.582;9.956;2022-07-05T12:13:05;2.40;;;1.00;;
5612;SDS011;2828;53.582;9.956;2022-07-05T12:15:31;4.00;;;0.90;;
5612;SDS011;2828;53.582;9.956;2022-07-05T12:17:59;1.20;;;0.90;;
5612;SDS011;2828;53.582;9.956;2022-07-05T12:20:28;2.97;;;0.90;;
5612;SDS011;2828;53.582;9.956;2022-07-05T12:22:54;2.07;;;0.77;;
5612;SDS011;2828;53.582;9.956;2022-07-05T12:25:20;5.23;;;0.90;;
5612;SDS011;2828;53.582;9.956;2022-07-05T12:27:47;1.70;;;0.80;;
5612;SDS011;2828;53.582;9.956;2022-07-05T12:30:13;1.83;;;0.80;;
5612;SDS011;2828;53.582;9.956;2022-07-05T12:32:55;1.00;;;0.90;;
5612;SDS011;2828;53.582;9.956;2022-07-05T12:35:29;0.90;;;0.73;;
5612;SDS011;2828;53.582;9.956;2022-07-05T12:37:55;3.80;;;0.90;;
5612;SDS011;2828;53.582;9.956;2022-07-05T12:40:22;6.23;;;0.80;;
5612;SDS011;2828;53.582;9.956;2022-07-05T12:42:59;0.73;;;0.70;;
5612;SDS011;2828;53.582;9.956;2022-07-05T12:45:25;1.00;;;0.77;;
5612;SDS011;2828;53.582;9.956;2022-07-05T12:47:52;1.13;;;0.90;;
5612;SDS011;2828;53.582;9.956;2022-07-05T12:50:19;1.73;;;0.83;;
5612;SDS011;2828;53.582;9.956;2022-07-05T12:55:35;1.63;;;0.80;;
5612;SDS011;2828;53.582;9.956;2022-07-05T12:58:20;1.20;;;1.10;;
5612;SDS011;2828;53.582;9.956;2022-07-05T13:00:46;0.90;;;0.70;;
5612;SDS011;2828;53.582;9.956;2022-07-05T13:03:13;3.93;;;0.90;;
5612;SDS011;2828;53.582;9.956;2022-07-05T13:05:40;1.30;;;0.90;;
5612;SDS011;2828;53.582;9.956;2022-07-05T13:08:06;8.03;;;0.80;;
5612;SDS011;2828;53.582;9.956;2022-07-05T13:10:32;1.63;;;0.80;;
5612;SDS011;2828;53.582;9.956;2022-07-05T13:12:58;0.93;;;0.83;;
5612;SDS011;2828;53.582;9.956;2022-07-05T13:15:24;4.53;;;0.90;;
5612;SDS011;2828;53.582;9.956;2022-07-05T13:17:50;2.53;;;1.17;;
5612;SDS011;2828;53.582;9.956;2022-07-05T13:20:17;5.13;;;1.13;;
5612;SDS011;2828;53.582;9.956;2022-07-05T13:22:45;2.50;;;0.80;;
5612;SDS011;2828;53.582;9.956;2022-07-05T13:25:11;1.27;;;0.97;;
5612;SDS011;2828;53.582;9.956;2022-07-05T13:27:37;1.73;;;1.07;;
5612;SDS011;2828;53.582;9.956;2022-07-05T13:30:03;2.13;;;1.13;;
5612;SDS011;2828;53.582;9.956;2022-07-05T13:32:30;1.50;;;1.20;;
5612;SDS011;2828;53.582;9.956;2022-07-05T13:34:56;2.77;;;0.93;;
5612;SDS011;2828;53.582;9.956;2022-07-05T13:37:22;1.67;;;1.10;;
5612;SDS011;2828;53.582;9.956;2022-07-05T13:39:48;1.10;;;1.00;;
5612;SDS011;2828;53.582;9.956;2022-07-05T13:42:14;2.30;;;1.30;;
5612;SDS011;2828;53.582;9.956;2022-07-05T13:44:40;0.83;;;0.80;;
5612;SDS011;2828;53.582;9.956;2022-07-05T13:47:06;2.20;;;1.17;;
5612;SDS011;2828;53.582;9.956;2022-07-05T13:49:32;3.53;;;1.20;;
5612;SDS011;2828;53.582;9.956;2022-07-05T13:51:58;2.90;;;1.30;;
5612;SDS011;2828;53.582;9.956;2022-07-05T13:54:26;2.80;;;2.60;;
5612;SDS011;2828;53.582;9.956;2022-07-05T13:56:52;3.57;;;1.10;;
5612;SDS011;2828;53.582;9.956;2022-07-05T13:59:18;3.50;;;1.07;;
5612;SDS011;2828;53.582;9.956;2022-07-05T14:01:44;4.00;;;1.30;;
5612;SDS011;2828;53.582;9.956;2022-07-05T14:04:11;5.70;;;1.10;;
5612;SDS011;2828;53.582;9.956;2022-07-05T14:06:38;1.97;;;1.20;;
5612;SDS011;2828;53.582;9.956;2022-07-05T14:09:04;2.30;;;1.20;;
5612;SDS011;2828;53.582;9.956;2022-07-05T14:11:30;2.57;;;1.00;;
5612;SDS011;2828;53.582;9.956;2022-07-05T14:13:56;10.10;;;1.37;;
5612;SDS011;2828;53.582;9.956;2022-07-05T14:16:22;1.20;;;1.10;;
5612;SDS011;2828;53.582;9.956;2022-07-05T14:18:49;3.23;;;1.47;;
5612;SDS011;2828;53.582;9.956;2022-07-05T14:21:15;4.70;;;1.83;;
5612;SDS011;2828;53.582;9.956;2022-07-05T14:23:42;8.80;;;1.37;;
5612;SDS011;2828;53.582;9.956;2022-07-05T14:26:08;4.07;;;1.63;;
5612;SDS011;2828;53.582;9.956;2022-07-05T14:28:35;3.33;;;1.10;;
5612;SDS011;2828;53.582;9.956;2022-07-05T14:31:02;7.20;;;1.30;;
5612;SDS011;2828;53.582;9.956;2022-07-05T14:33:28;2.80;;;1.30;;
5612;SDS011;2828;53.582;9.956;2022-07-05T14:35:54;5.03;;;1.30;;
5612;SDS011;2828;53.582;9.956;2022-07-05T14:38:20;4.40;;;1.10;;
5612;SDS011;2828;53.582;9.956;2022-07-05T14:40:45;2.20;;;1.33;;
5612;SDS011;2828;53.582;9.956;2022-07-05T14:43:11;2.67;;;1.70;;
5612;SDS011;2828;53.582;9.956;2022-07-05T14:45:37;3.10;;;1.20;;
5612;SDS011;2828;53.582;9.956;2022-07-05T14:48:03;1.23;;;1.13;;
5612;SDS011;2828;53.582;9.956;2022-07-05T14:50:30;1.73;;;1.53;;
5612;SDS011;2828;53.582;9.956;2022-07-05T14:52:55;14.47;;;1.90;;
5612;SDS011;2828;53.582;9.956;2022-07-05T14:55:21;1.20;;;1.10;;
5612;SDS011;2828;53.582;9.956;2022-07-05T14:57:47;3.03;;;1.20;;
5612;SDS011;2828;53.582;9.956;2022-07-05T15:00:14;2.23;;;1.30;;
5612;SDS011;2828;53.582;9.956;2022-07-05T15:02:41;3.07;;;1.30;;
5612;SDS011;2828;53.582;9.956;2022-07-05T15:05:07;1.50;;;1.40;;
5612;SDS011;2828;53.582;9.956;2022-07-05T15:07:34;4.50;;;1.20;;
5612;SDS011;2828;53.582;9.956;2022-07-05T15:10:01;1.40;;;1.30;;
5612;SDS011;2828;53.582;9.956;2022-07-05T15:12:27;3.63;;;1.30;;
5612;SDS011;2828;53.582;9.956;2022-07-05T15:14:53;6.13;;;1.67;;
5612;SDS011;2828;53.582;9.956;2022-07-05T15:17:18;6.37;;;1.50;;
5612;SDS011;2828;53.582;9.956;2022-07-05T15:19:44;1.73;;;1.20;;
5612;SDS011;2828;53.582;9.956;2022-07-05T15:22:10;1.50;;;1.40;;
5612;SDS011;2828;53.582;9.956;2022-07-05T15:24:37;1.20;;;1.20;;
5612;SDS011;2828;53.582;9.956;2022-07-05T15:27:03;1.40;;;1.30;;
5612;SDS011;2828;53.582;9.956;2022-07-05T15:29:29;1.30;;;1.20;;
5612;SDS011;2828;53.582;9.956;2022-07-05T15:31:55;2.60;;;1.70;;
5612;SDS011;2828;53.582;9.956;2022-07-05T15:34:23;4.93;;;1.30;;